Terminal Aerodrome Forecast
Issued by NWS Knoxville/Tri Cities, TN

Home | Current Version | Previous Version | Text Only | Print | Product List | Glossary On
Versions: 1 2 3 4 5 6 7 8 9 10 11 12 13 14 15 16 17 18 19 20 21 22 23 24 25 26 27 28 29 30 31 32 33 34 35 36 37 38 39
000
FTUS44 KMRX 281137
TAFTYS
TAF
KTYS 281137Z 2812/2912 VRB02KT P6SM VCSH SCT050 BKN120
     FM281400 VRB04KT P6SM VCTS SCT035CB BKN100
     FM281900 07004KT 5SM -TSRA BR BKN040CB OVC080
     FM290200 VRB03KT P6SM VCSH SCT035 BKN080
     FM290700 00000KT P6SM FEW040 OVC100=

USA.gov is the U.S. government's official web portal to all federal, state and local government web resources and services.